Time;durP1;ratioP1;P1;durP2;ratioP2;P2;SDS_P1;SDS_P2;PMS_P1;PMS_P2;Temp;Humidity;BMP_temperature;BMP_pressure;BME280_temperature;BME280_humidity;BME280_pressure;Samples;Min_cycle;Max_cycle;Signal;HPM_P1;HPM_P2
2023/06/13 00:02:55;;;;;;;5.87;3.00;;;;;;;8.02;88.15;97740.81;6239852;28;20647;-46
2023/06/13 00:06:01;;;;;;;4.53;2.43;;;;;;;7.97;88.65;97732.72;6236655;28;20231;-46
2023/06/13 00:09:03;;;;;;;3.73;2.60;;;;;;;7.92;88.94;97733.38;6238571;28;20243;-47
2023/06/13 00:12:06;;;;;;;2.57;2.37;;;;;;;7.88;88.83;97726.94;6238944;28;20293;-46
2023/06/13 00:15:10;;;;;;;3.17;2.87;;;;;;;7.87;88.62;97727.94;6238307;28;20224;-46
2023/06/13 00:18:12;;;;;;;2.53;2.20;;;;;;;7.87;88.89;97732.44;6235491;28;20223;-46
2023/06/13 00:21:14;;;;;;;3.07;2.30;;;;;;;7.88;89.22;97726.09;6240458;28;20224;-46
2023/06/13 00:24:16;;;;;;;2.97;2.50;;;;;;;7.85;88.99;97731.88;6240907;28;20250;-46
2023/06/13 00:27:19;;;;;;;6.40;2.50;;;;;;;7.76;89.13;97726.84;6220325;28;20621;-48
2023/06/13 00:30:21;;;;;;;3.80;2.30;;;;;;;7.56;89.87;97709.56;6201923;28;20233;-45
2023/06/13 00:33:31;;;;;;;2.97;2.50;;;;;;;7.58;90.08;97728.69;6204349;28;20253;-46
2023/06/13 00:36:33;;;;;;;3.53;2.67;;;;;;;7.50;90.36;97733.28;6237462;28;20315;-46
2023/06/13 00:39:36;;;;;;;7.13;2.83;;;;;;;7.15;90.24;97668.63;6239058;28;20227;-45
2023/06/13 00:42:39;;;;;;;5.33;3.07;;;;;;;7.45;90.09;97717.22;6240345;28;20228;-46
2023/06/13 00:45:41;;;;;;;3.63;2.70;;;;;;;7.40;90.03;97690.56;6234846;28;20219;-50
2023/06/13 00:48:45;;;;;;;2.50;2.20;;;;;;;7.62;90.41;97721.94;6236239;28;20577;-46
2023/06/13 00:51:48;;;;;;;4.17;2.50;;;;;;;7.60;90.35;97708.91;6239272;28;20628;-45
2023/06/13 00:54:50;;;;;;;3.83;2.30;;;;;;;7.62;90.12;97708.66;6204678;28;20282;-50
2023/06/13 00:57:58;;;;;;;3.00;2.37;;;;;;;7.59;89.65;97709.13;6216149;28;20252;-49
2023/06/13 01:01:02;;;;;;;4.23;2.63;;;;;;;7.48;89.47;97705.34;6208732;28;20240;-46
2023/06/13 01:04:05;;;;;;;4.20;2.40;;;;;;;7.41;89.92;97713.38;6215033;28;20232;-46
2023/06/13 01:07:11;;;;;;;3.33;2.90;;;;;;;7.37;90.08;97706.09;6210977;28;20243;-45
2023/06/13 01:10:16;;;;;;;2.90;2.20;;;;;;;7.41;90.35;97705.44;6219202;28;20233;-46
2023/06/13 01:13:27;;;;;;;4.43;2.20;;;;;;;7.39;90.16;97699.56;6220516;28;20728;-46
2023/06/13 01:16:45;;;;;;;4.60;2.50;;;;;;;7.39;90.40;97707.50;6220342;28;20753;-46
2023/06/13 01:19:57;;;;;;;3.37;2.60;;;;;;;7.39;90.96;97707.50;6213514;28;20231;-46
2023/06/13 01:23:17;;;;;;;3.47;2.40;;;;;;;6.69;90.17;97598.41;6221681;28;20228;-46
2023/06/13 01:26:20;;;;;;;3.97;2.47;;;;;;;7.32;90.16;97701.47;6218309;28;20260;-46
2023/06/13 01:29:23;;;;;;;5.00;3.03;;;;;;;7.19;90.27;97698.94;6219307;28;20262;-47
2023/06/13 01:32:26;;;;;;;4.50;2.30;;;;;;;7.06;90.95;97704.38;6216977;28;20239;-46
2023/06/13 01:35:31;;;;;;;5.60;2.50;;;;;;;6.94;91.21;97697.13;6202911;28;20242;-45
2023/06/13 01:38:35;;;;;;;3.67;2.77;;;;;;;6.90;91.11;97693.31;6221993;28;20263;-44
2023/06/13 01:41:37;;;;;;;4.60;2.60;;;;;;;6.87;91.34;97700.88;6214647;28;20217;-46
2023/06/13 01:44:39;;;;;;;9.70;3.17;;;;;;;6.80;92.00;97687.72;6217263;28;20228;-45
2023/06/13 01:48:09;;;;;;;4.67;3.03;;;;;;;6.77;92.43;97690.78;6218327;28;20220;-47
2023/06/13 01:51:40;;;;;;;4.73;2.70;;;;;;;6.73;92.17;97676.34;6218611;28;20231;-47
2023/06/13 01:54:49;;;;;;;9.10;2.83;;;;;;;6.65;92.71;97676.63;6197262;28;20278;-46
2023/06/13 01:58:00;;;;;;;5.40;2.77;;;;;;;6.64;93.18;97681.09;6235337;28;20242;-45
2023/06/13 02:01:06;;;;;;;3.07;2.73;;;;;;;6.59;93.38;97675.66;6241702;28;20231;-45
2023/06/13 02:04:08;;;;;;;3.30;2.70;;;;;;;6.56;93.20;97675.28;6241624;28;20727;-46
2023/06/13 02:07:11;;;;;;;3.10;2.63;;;;;;;6.56;93.62;97675.28;6240098;28;20310;-46
2023/06/13 02:10:13;;;;;;;7.37;2.60;;;;;;;6.37;93.18;97654.06;6223947;28;20227;-48
2023/06/13 02:13:16;;;;;;;3.97;2.80;;;;;;;6.53;93.22;97681.81;6220875;28;20238;-47
2023/06/13 02:16:18;;;;;;;3.30;2.50;;;;;;;6.55;93.55;97666.56;6205766;28;20380;-46
2023/06/13 02:19:21;;;;;;;3.50;2.70;;;;;;;6.54;93.17;97672.84;6226900;28;20234;-46
2023/06/13 02:22:23;;;;;;;3.97;2.60;;;;;;;6.57;93.39;97674.25;6237775;28;20267;-45
2023/06/13 02:25:25;;;;;;;3.70;2.53;;;;;;;6.57;93.46;97667.13;6238805;28;20238;-46
2023/06/13 02:28:27;;;;;;;3.67;2.80;;;;;;;6.59;93.38;97678.31;6240215;28;20325;-45
2023/06/13 02:31:30;;;;;;;4.70;2.53;;;;;;;6.67;93.72;97674.59;6239227;28;20321;-46
2023/06/13 02:34:32;;;;;;;3.90;2.80;;;;;;;6.68;93.40;97665.63;6241749;28;20355;-47
2023/06/13 02:37:35;;;;;;;2.50;2.30;;;;;;;6.71;93.55;97671.28;6217659;28;20251;-48
2023/06/13 02:40:37;;;;;;;2.47;2.27;;;;;;;6.69;93.02;97669.88;6222507;28;20235;-45
2023/06/13 02:43:40;;;;;;;2.70;2.50;;;;;;;6.29;93.16;97603.25;6202871;28;20274;-45
2023/06/13 02:46:42;;;;;;;6.13;2.63;;;;;;;6.65;93.10;97673.97;6203442;28;20237;-50
2023/06/13 02:49:44;;;;;;;2.50;2.30;;;;;;;6.61;92.84;97670.97;6236655;28;20289;-46
2023/06/13 02:52:47;;;;;;;7.63;2.53;;;;;;;6.65;93.33;97664.22;6236238;28;20226;-46
2023/06/13 02:55:54;;;;;;;10.77;2.47;;;;;;;6.69;93.43;97678.63;6208196;28;20620;-47
2023/06/13 02:58:57;;;;;;;3.63;2.53;;;;;;;6.68;92.97;97666.41;6239824;28;20313;-47
2023/06/13 03:01:59;;;;;;;2.40;2.20;;;;;;;6.66;93.02;97665.03;6221308;28;20717;-47
2023/06/13 03:05:03;;;;;;;4.73;2.43;;;;;;;6.59;92.78;97656.31;6224406;28;20648;-45
2023/06/13 03:08:07;;;;;;;7.40;2.60;;;;;;;6.44;92.71;97664.56;6228585;28;20227;-49
2023/06/13 03:11:09;;;;;;;2.97;2.37;;;;;;;6.31;93.27;97659.41;6225633;28;20242;-46
2023/06/13 03:14:13;;;;;;;3.70;2.60;;;;;;;6.23;93.59;97657.00;6240949;28;20231;-45
2023/06/13 03:17:16;;;;;;;3.40;2.73;;;;;;;6.19;93.82;97664.56;6222768;28;20314;-45
2023/06/13 03:20:23;;;;;;;5.37;2.83;;;;;;;6.18;93.38;97657.66;6219964;28;20242;-48
2023/06/13 03:23:34;;;;;;;4.23;3.37;;;;;;;6.18;93.79;97658.47;6222206;28;20245;-45
2023/06/13 03:26:38;;;;;;;4.53;2.73;;;;;;;6.20;94.15;97658.25;6240010;28;20317;-46
2023/06/13 03:29:45;;;;;;;4.47;2.90;;;;;;;6.22;94.60;97660.69;6239793;28;20226;-45
2023/06/13 03:32:48;;;;;;;6.07;2.93;;;;;;;6.23;94.66;97652.53;6238947;28;20252;-45
2023/06/13 03:35:50;;;;;;;2.93;2.30;;;;;;;6.24;94.59;97662.09;6239612;28;20235;-45
2023/06/13 03:38:55;;;;;;;7.30;2.70;;;;;;;6.23;95.08;97659.66;6218144;28;20238;-47
2023/06/13 03:41:58;;;;;;;6.00;3.20;;;;;;;6.20;95.23;97659.03;6222195;28;20273;-47
2023/06/13 03:45:00;;;;;;;3.40;3.00;;;;;;;5.96;95.40;97620.19;6238220;28;20241;-46
2023/06/13 03:48:02;;;;;;;3.60;2.70;;;;;;;6.18;95.17;97649.72;6235138;28;20310;-45
2023/06/13 03:51:05;;;;;;;3.93;2.80;;;;;;;6.19;95.57;97654.78;6237482;28;20211;-45
2023/06/13 03:54:07;;;;;;;3.00;2.70;;;;;;;6.22;95.13;97655.41;6235250;28;20325;-48
2023/06/13 03:57:10;;;;;;;7.00;2.40;;;;;;;6.13;95.25;97638.97;6235108;28;20227;-46
2023/06/13 04:00:13;;;;;;;2.97;2.63;;;;;;;6.27;95.37;97647.63;6235551;28;20598;-45
2023/06/13 04:03:16;;;;;;;3.10;2.80;;;;;;;6.41;95.62;97660.53;6240031;28;20282;-45
2023/06/13 04:06:18;;;;;;;3.93;2.73;;;;;;;6.52;95.90;97658.22;6236543;28;20556;-47
2023/06/13 04:09:23;;;;;;;5.20;2.80;;;;;;;6.60;95.80;97655.28;6235500;28;20227;-45
2023/06/13 04:12:28;;;;;;;3.47;2.90;;;;;;;6.68;95.65;97655.81;6240433;28;20561;-50
2023/06/13 04:15:30;;;;;;;4.53;2.67;;;;;;;6.65;95.31;97666.88;6224628;28;20233;-46
2023/06/13 04:18:36;;;;;;;3.37;2.80;;;;;;;6.58;95.37;97662.66;6218942;28;20269;-46
2023/06/13 04:21:39;;;;;;;3.03;2.63;;;;;;;6.55;95.21;97655.97;6217860;28;20223;-45
2023/06/13 04:24:41;;;;;;;3.13;2.70;;;;;;;6.00;95.29;97572.94;6219955;28;20223;-45
2023/06/13 04:27:44;;;;;;;3.93;2.77;;;;;;;6.55;95.17;97663.06;6237665;28;20311;-45
2023/06/13 04:30:49;;;;;;;4.07;2.60;;;;;;;6.55;95.45;97655.13;6237202;28;20253;-46
2023/06/13 04:33:55;;;;;;;3.80;2.63;;;;;;;6.58;95.41;97663.44;6235911;28;20719;-48
2023/06/13 04:36:57;;;;;;;5.27;3.00;;;;;;;6.60;95.86;97657.94;6235374;28;20222;-46
2023/06/13 04:39:59;;;;;;;3.47;2.97;;;;;;;6.64;95.94;97659.13;6229790;28;20645;-46
2023/06/13 04:43:04;;;;;;;3.23;2.70;;;;;;;6.70;96.13;97664.38;6237305;28;20713;-46
2023/06/13 04:46:08;;;;;;;6.73;2.80;;;;;;;6.58;95.92;97646.75;6204142;28;20240;-46
2023/06/13 04:49:11;;;;;;;3.50;2.50;;;;;;;6.80;96.31;97663.88;6238498;28;20245;-45
2023/06/13 04:52:14;;;;;;;4.87;3.40;;;;;;;6.85;96.69;97656.09;6236230;28;20317;-45
2023/06/13 04:55:16;;;;;;;3.57;3.00;;;;;;;6.76;96.73;97628.28;6240946;28;20377;-44
2023/06/13 04:58:19;;;;;;;3.63;3.07;;;;;;;6.98;96.89;97657.78;6211369;28;20226;-49
2023/06/13 05:01:26;;;;;;;3.57;2.60;;;;;;;7.08;97.12;97660.75;6243329;28;20244;-45
2023/06/13 05:04:29;;;;;;;3.20;2.80;;;;;;;6.95;96.49;97629.94;6242872;28;20227;-46
2023/06/13 05:07:31;;;;;;;4.53;3.10;;;;;;;6.54;96.55;97563.53;6242657;28;20700;-48
2023/06/13 05:10:34;;;;;;;2.77;2.57;;;;;;;7.20;96.98;97656.34;6241520;28;20304;-50
2023/06/13 05:13:36;;;;;;;4.90;2.77;;;;;;;7.27;96.81;97664.22;6241810;28;20239;-46
2023/06/13 05:16:38;;;;;;;3.90;2.70;;;;;;;7.30;96.99;97669.09;6240570;28;20234;-46
2023/06/13 05:19:41;;;;;;;3.00;2.70;;;;;;;7.44;97.06;97669.75;6243651;28;20231;-46
2023/06/13 05:22:43;;;;;;;2.73;2.53;;;;;;;7.54;97.42;97671.84;6243528;28;20296;-46
2023/06/13 05:25:46;;;;;;;4.00;2.90;;;;;;;7.66;97.30;97670.09;6241368;28;20243;-46
2023/06/13 05:28:48;;;;;;;2.67;2.47;;;;;;;7.73;97.63;97665.50;6224173;28;20237;-53
2023/06/13 05:31:50;;;;;;;4.93;3.03;;;;;;;7.84;97.34;97672.72;6244705;28;22677;-46
2023/06/13 05:34:52;;;;;;;3.60;2.53;;;;;;;7.92;97.40;97659.13;6241931;28;20706;-45
2023/06/13 05:37:55;;;;;;;3.00;2.60;;;;;;;8.02;97.68;97664.69;6242400;28;20235;-46
2023/06/13 05:40:57;;;;;;;3.40;2.63;;;;;;;8.14;98.00;97674.56;6241512;28;20242;-46
2023/06/13 05:44:00;;;;;;;4.03;3.00;;;;;;;8.27;97.94;97669.88;6242525;28;20323;-46
2023/06/13 05:47:03;;;;;;;3.20;2.70;;;;;;;8.40;98.44;97674.19;6224018;28;20831;-46
2023/06/13 05:50:06;;;;;;;7.47;3.10;;;;;;;8.52;98.32;97671.53;6220734;28;20227;-46
2023/06/13 05:53:10;;;;;;;3.70;3.30;;;;;;;8.66;98.21;97677.44;6242891;28;20280;-48
2023/06/13 05:56:12;;;;;;;3.47;3.17;;;;;;;8.79;98.42;97671.94;6237509;28;20237;-46
2023/06/13 05:59:14;;;;;;;4.70;2.97;;;;;;;8.94;98.54;97677.59;6234844;28;20225;-46
2023/06/13 06:02:16;;;;;;;3.37;3.07;;;;;;;9.07;98.53;97681.06;6240692;28;20236;-46
2023/06/13 06:05:19;;;;;;;3.43;3.13;;;;;;;9.30;99.10;97676.50;6243311;28;20231;-46
2023/06/13 06:08:21;;;;;;;4.00;3.50;;;;;;;9.49;98.84;97676.38;6240306;28;20592;-49
2023/06/13 06:11:23;;;;;;;4.97;2.83;;;;;;;9.66;98.84;97677.28;6241606;28;20322;-46
2023/06/13 06:14:26;;;;;;;5.33;3.00;;;;;;;9.86;98.74;97676.84;6241627;28;20241;-48
2023/06/13 06:17:28;;;;;;;3.43;2.87;;;;;;;10.05;98.50;97683.63;6242382;28;20317;-46
2023/06/13 06:20:30;;;;;;;3.20;2.83;;;;;;;10.24;97.30;97686.09;6238372;28;20719;-45
2023/06/13 06:23:32;;;;;;;4.10;3.10;;;;;;;10.51;97.55;97681.78;6243044;28;20230;-47
2023/06/13 06:26:34;;;;;;;5.20;3.37;;;;;;;10.70;95.21;97681.56;6240295;28;20228;-47
2023/06/13 06:29:38;;;;;;;2.50;2.30;;;;;;;10.68;95.19;97649.00;6245145;28;20237;-46
2023/06/13 06:32:41;;;;;;;5.80;2.77;;;;;;;11.05;94.20;97690.09;6240656;28;20839;-45
2023/06/13 06:35:45;;;;;;;3.00;2.60;;;;;;;11.11;93.92;97686.44;6242887;28;20272;-46
2023/06/13 06:38:47;;;;;;;2.70;2.40;;;;;;;11.17;93.43;97691.84;6209776;28;20239;-46
2023/06/13 06:41:49;;;;;;;3.87;2.27;;;;;;;11.29;92.83;97701.38;6241530;28;20251;-47
2023/06/13 06:44:54;;;;;;;2.33;2.00;;;;;;;11.42;92.64;97692.19;6241091;28;20235;-45
2023/06/13 06:47:57;;;;;;;2.47;2.27;;;;;;;11.66;91.97;97697.28;6240405;28;20314;-45
2023/06/13 06:51:00;;;;;;;3.43;2.13;;;;;;;11.77;90.87;97685.69;6238913;28;20235;-44
2023/06/13 06:54:02;;;;;;;2.40;2.20;;;;;;;11.67;90.75;97633.00;6240084;28;20341;-47
2023/06/13 06:57:05;;;;;;;5.23;2.80;;;;;;;12.11;88.45;97663.13;6239594;28;20231;-49
2023/06/13 07:00:10;;;;;;;2.30;2.10;;;;;;;12.32;87.00;97672.16;6242816;28;20220;-45
2023/06/13 07:03:13;;;;;;;2.53;1.93;;;;;;;12.43;85.89;97674.94;6241346;28;20212;-48
2023/06/13 07:06:16;;;;;;;2.80;2.43;;;;;;;12.52;84.46;97674.22;6245888;28;20215;-46
2023/06/13 07:09:18;;;;;;;2.60;2.20;;;;;;;12.65;82.72;97668.44;6243667;28;20306;-45
2023/06/13 07:12:20;;;;;;;1.97;1.87;;;;;;;12.72;82.43;97656.75;6224247;28;20212;-47
2023/06/13 07:15:23;;;;;;;2.70;2.23;;;;;;;12.98;81.70;97674.56;6239278;28;20924;-46
2023/06/13 07:18:26;;;;;;;4.20;2.23;;;;;;;13.20;79.42;97678.97;6242754;28;20228;-46
2023/06/13 07:21:28;;;;;;;3.43;1.90;;;;;;;13.38;78.32;97671.34;6238764;28;20226;-45
2023/06/13 07:24:31;;;;;;;4.07;2.47;;;;;;;13.51;65.63;97646.00;6239973;28;20258;-47
2023/06/13 07:27:33;;;;;;;7.57;2.57;;;;;;;13.91;72.55;97674.78;6239415;28;20368;-46
2023/06/13 07:30:36;;;;;;;4.50;2.10;;;;;;;14.01;66.26;97668.66;6239015;28;20755;-46
2023/06/13 07:33:39;;;;;;;3.27;1.97;;;;;;;14.31;63.98;97659.88;6238680;28;20298;-47
2023/06/13 07:36:41;;;;;;;3.07;1.77;;;;;;;14.44;66.35;97661.25;6240009;28;20717;-47
2023/06/13 07:39:44;;;;;;;4.27;2.20;;;;;;;14.49;60.78;97668.50;6240082;28;20600;-45
2023/06/13 07:42:50;;;;;;;3.70;2.13;;;;;;;14.66;60.11;97667.16;6211798;28;20621;-47
2023/06/13 07:45:52;;;;;;;3.87;2.00;;;;;;;14.76;62.38;97668.25;6234405;28;20223;-46
2023/06/13 07:48:54;;;;;;;2.97;2.03;;;;;;;14.83;63.64;97666.91;6234078;28;20282;-47
2023/06/13 07:51:57;;;;;;;5.83;1.80;;;;;;;15.02;58.25;97659.09;6239441;28;20238;-46
2023/06/13 07:54:59;;;;;;;2.60;1.97;;;;;;;15.09;60.90;97654.25;6238544;28;20923;-46
2023/06/13 07:58:02;;;;;;;2.77;2.27;;;;;;;15.12;54.80;97624.22;6238604;28;20321;-46
2023/06/13 08:01:06;;;;;;;3.27;2.20;;;;;;;15.37;59.11;97660.91;6240803;28;20369;-47
2023/06/13 08:04:08;;;;;;;3.57;2.00;;;;;;;15.43;57.04;97651.75;6235591;28;20230;-46
2023/06/13 08:07:11;;;;;;;4.37;2.20;;;;;;;15.49;55.83;97655.22;6220322;28;20239;-48
2023/06/13 08:10:13;;;;;;;3.23;2.33;;;;;;;15.41;56.28;97648.53;6238473;28;20251;-45
2023/06/13 08:13:16;;;;;;;2.50;1.80;;;;;;;15.69;54.04;97665.91;6238703;28;20235;-46
2023/06/13 08:16:19;;;;;;;2.50;1.87;;;;;;;15.84;53.06;97661.56;6200974;28;20239;-46
2023/06/13 08:19:21;;;;;;;2.27;1.83;;;;;;;15.97;53.46;97653.72;6220231;28;20227;-45
2023/06/13 08:22:26;;;;;;;3.20;2.20;;;;;;;16.17;54.40;97660.03;6234002;28;20250;-48
2023/06/13 08:25:28;;;;;;;4.00;1.93;;;;;;;15.97;51.95;97626.03;6242601;28;20235;-46
2023/06/13 08:28:30;;;;;;;4.40;1.93;;;;;;;16.24;53.46;97660.53;6247148;28;20235;-47
2023/06/13 08:31:33;;;;;;;4.20;2.30;;;;;;;16.20;53.00;97648.72;6240031;28;20317;-46
2023/06/13 08:34:41;;;;;;;2.30;2.07;;;;;;;16.16;52.55;97653.88;6211658;28;20230;-46
2023/06/13 08:37:43;;;;;;;2.57;2.20;;;;;;;16.17;54.20;97654.66;6239553;28;20325;-47
2023/06/13 08:40:45;;;;;;;3.73;2.13;;;;;;;16.17;55.73;97655.47;6242400;28;20256;-46
2023/06/13 08:43:48;;;;;;;3.47;2.17;;;;;;;16.28;53.44;97658.09;6242436;28;20227;-46
2023/06/13 08:46:50;;;;;;;3.07;2.30;;;;;;;16.40;51.16;97651.28;6220054;28;20236;-49
2023/06/13 08:49:56;;;;;;;3.10;2.13;;;;;;;16.52;50.78;97657.09;6239988;28;20606;-47
2023/06/13 08:53:00;;;;;;;3.70;2.17;;;;;;;16.62;51.02;97650.84;6246488;28;20231;-47
2023/06/13 08:56:07;;;;;;;2.87;1.80;;;;;;;16.71;50.05;97648.38;6242478;28;20235;-50
2023/06/13 08:59:23;;;;;;;4.57;2.73;;;;;;;16.62;49.26;97658.13;6243919;28;20223;-47
2023/06/13 09:02:26;;;;;;;3.80;2.27;;;;;;;16.47;50.18;97661.72;6225731;28;20307;-48
2023/06/13 09:05:31;;;;;;;5.33;2.20;;;;;;;16.42;48.52;97653.69;6239377;28;20660;-45
2023/06/13 09:08:36;;;;;;;3.53;2.23;;;;;;;16.47;48.20;97651.78;6243456;28;20227;-46
2023/06/13 09:11:38;;;;;;;6.13;2.23;;;;;;;16.51;48.75;97643.94;6204262;28;20303;-48
2023/06/13 09:14:41;;;;;;;3.60;2.37;;;;;;;16.69;45.58;97650.50;6244366;28;20316;-46
2023/06/13 09:17:43;;;;;;;3.60;1.97;;;;;;;16.76;47.23;97642.97;6244290;28;20835;-46
2023/06/13 09:20:47;;;;;;;2.63;1.73;;;;;;;16.83;45.52;97643.44;6242427;28;20249;-46
2023/06/13 09:23:57;;;;;;;4.37;2.17;;;;;;;17.03;42.76;97639.75;6241622;28;20834;-47
2023/06/13 09:27:01;;;;;;;3.20;2.20;;;;;;;17.17;44.54;97638.00;6241156;28;20235;-45
2023/06/13 09:30:04;;;;;;;2.00;1.80;;;;;;;17.22;40.93;97646.00;6242401;28;20296;-49
2023/06/13 09:33:06;;;;;;;3.17;2.20;;;;;;;17.02;40.81;97636.25;6242657;28;20306;-47
2023/06/13 09:36:12;;;;;;;2.70;2.10;;;;;;;17.17;40.29;97631.81;6242574;28;20361;-46
2023/06/13 09:39:14;;;;;;;3.60;1.70;;;;;;;17.19;42.57;97635.84;6240663;28;20223;-46
2023/06/13 09:42:25;;;;;;;5.03;1.90;;;;;;;17.18;38.02;97619.94;6225352;28;20211;-47
2023/06/13 09:45:29;;;;;;;2.87;1.73;;;;;;;17.21;39.94;97622.06;6243357;28;20239;-46
2023/06/13 09:48:31;;;;;;;2.60;1.70;;;;;;;17.27;42.46;97627.09;6240477;28;20233;-48
2023/06/13 09:51:37;;;;;;;3.87;2.10;;;;;;;17.48;38.59;97619.59;6241813;28;20227;-47
2023/06/13 09:54:44;;;;;;;2.80;2.23;;;;;;;17.47;37.80;97619.88;6241215;28;20243;-46
2023/06/13 09:57:50;;;;;;;4.87;2.27;;;;;;;17.39;37.03;97623.19;6243160;28;20318;-45
2023/06/13 10:01:14;;;;;;;3.70;1.90;;;;;;;17.37;38.62;97623.50;6237564;28;20240;-45
2023/06/13 10:04:18;;;;;;;3.63;2.13;;;;;;;17.51;38.30;97616.34;6239525;28;20694;-45
2023/06/13 10:07:20;;;;;;;2.13;1.83;;;;;;;17.53;42.15;97614.13;6221635;28;20246;-47
2023/06/13 10:10:23;;;;;;;2.53;2.00;;;;;;;17.61;37.97;97612.72;6240317;28;20234;-48
2023/06/13 10:13:29;;;;;;;2.80;2.10;;;;;;;17.81;37.38;97608.19;6241182;28;20316;-47
2023/06/13 10:16:37;;;;;;;3.43;2.40;;;;;;;17.79;36.27;97605.78;6240543;28;20230;-46
2023/06/13 10:19:42;;;;;;;2.97;2.07;;;;;;;17.77;35.91;97591.78;6237730;28;20228;-47
2023/06/13 10:22:45;;;;;;;2.50;1.97;;;;;;;17.89;37.33;97599.47;6241681;28;20257;-46
2023/06/13 10:25:53;;;;;;;3.13;1.77;;;;;;;17.73;41.93;97561.13;6241455;28;20238;-46
2023/06/13 10:29:38;;;;;;;2.93;2.10;;;;;;;18.00;42.44;97595.53;6240427;28;20226;-48
2023/06/13 10:33:02;;;;;;;4.10;2.00;;;;;;;18.08;36.88;97586.78;6234156;28;20231;-45
2023/06/13 10:36:24;;;;;;;3.20;2.10;;;;;;;18.04;36.63;97558.81;6238172;28;20326;-47
2023/06/13 10:39:34;;;;;;;5.40;2.40;;;;;;;18.18;36.95;97588.53;6236562;28;20234;-48
2023/06/13 10:42:53;;;;;;;3.83;2.07;;;;;;;18.13;32.70;97591.28;6241074;28;20232;-47
2023/06/13 10:45:58;;;;;;;3.63;2.30;;;;;;;17.96;34.84;97575.63;6239535;28;20244;-46
2023/06/13 10:49:01;;;;;;;2.53;1.80;;;;;;;17.78;35.48;97550.28;6240951;28;20231;-47
2023/06/13 10:52:04;;;;;;;2.93;2.37;;;;;;;18.11;33.43;97580.00;6238210;28;20276;-47
2023/06/13 10:55:07;;;;;;;3.83;2.27;;;;;;;18.17;36.03;97582.31;6203202;28;20286;-46
2023/06/13 10:58:15;;;;;;;4.37;2.13;;;;;;;18.22;36.45;97584.91;6237888;28;20239;-46
2023/06/13 11:01:26;;;;;;;3.43;2.53;;;;;;;18.28;32.27;97591.06;6239858;28;20227;-47
2023/06/13 11:04:29;;;;;;;3.93;2.10;;;;;;;18.01;33.28;97549.38;6240216;28;20728;-49
2023/06/13 11:07:33;;;;;;;7.13;2.37;;;;;;;18.23;35.55;97577.66;6240943;28;20242;-46
2023/06/13 11:10:36;;;;;;;3.40;2.40;;;;;;;18.34;35.21;97578.28;6241013;28;20228;-46
2023/06/13 11:13:39;;;;;;;2.70;1.97;;;;;;;18.34;33.85;97575.59;6220458;28;20317;-46
2023/06/13 11:16:43;;;;;;;1.93;1.63;;;;;;;18.05;33.92;97518.06;6239823;28;20229;-49
2023/06/13 11:19:45;;;;;;;5.17;2.20;;;;;;;18.29;32.75;97563.78;6240982;28;20369;-47
2023/06/13 11:22:48;;;;;;;1.90;1.70;;;;;;;18.32;33.98;97551.59;6238864;28;20234;-47
2023/06/13 11:25:51;;;;;;;3.77;2.17;;;;;;;17.97;34.05;97507.94;6241183;28;20235;-46
2023/06/13 11:28:54;;;;;;;3.80;2.30;;;;;;;18.41;32.25;97552.53;6238928;28;20926;-46
2023/06/13 11:31:57;;;;;;;1.80;1.63;;;;;;;18.38;33.48;97544.25;6239814;28;20758;-46
2023/06/13 11:35:03;;;;;;;2.30;2.10;;;;;;;18.45;34.91;97540.06;6238930;28;20235;-48
2023/06/13 11:38:09;;;;;;;2.87;2.00;;;;;;;18.40;35.27;97509.69;6239263;28;20300;-45
2023/06/13 11:41:11;;;;;;;3.40;2.10;;;;;;;18.66;34.86;97521.59;6238262;28;20231;-49
2023/06/13 11:44:14;;;;;;;4.20;2.30;;;;;;;18.85;33.12;97535.06;6240485;28;20267;-45
2023/06/13 11:47:16;;;;;;;4.80;2.03;;;;;;;18.85;35.02;97545.06;6235297;28;20232;-47
2023/06/13 11:50:26;;;;;;;4.47;2.60;;;;;;;18.90;32.38;97544.97;6237571;28;20625;-46
2023/06/13 11:53:28;;;;;;;3.43;2.40;;;;;;;18.79;33.64;97533.56;6239619;28;20224;-48
2023/06/13 11:56:34;;;;;;;3.33;2.10;;;;;;;18.87;34.26;97535.56;6237419;28;20232;-46
2023/06/13 11:59:39;;;;;;;2.83;2.10;;;;;;;19.09;31.98;97540.28;6239164;28;20349;-49
2023/06/13 12:02:45;;;;;;;4.10;2.20;;;;;;;18.94;34.12;97524.38;6238893;28;20705;-46
2023/06/13 12:05:48;;;;;;;4.63;2.30;;;;;;;18.87;32.91;97532.09;6239139;28;20265;-46
2023/06/13 12:08:52;;;;;;;3.23;2.20;;;;;;;18.96;33.39;97531.06;6238381;28;20239;-45
2023/06/13 12:11:55;;;;;;;3.37;2.10;;;;;;;19.12;32.82;97519.97;6239422;28;20231;-47
2023/06/13 12:14:57;;;;;;;3.93;2.17;;;;;;;19.22;32.31;97517.06;6241419;28;20242;-49
2023/06/13 12:18:02;;;;;;;2.50;2.20;;;;;;;19.18;31.11;97491.78;6237773;28;20326;-46
2023/06/13 12:21:06;;;;;;;4.87;2.13;;;;;;;19.36;33.74;97522.44;6239983;28;20254;-47
2023/06/13 12:24:09;;;;;;;3.83;2.20;;;;;;;19.32;36.15;97504.16;6237375;28;20727;-46
2023/06/13 12:27:12;;;;;;;2.90;2.00;;;;;;;19.24;29.48;97498.66;6243891;28;20591;-47
2023/06/13 12:30:17;;;;;;;4.13;2.20;;;;;;;19.18;30.85;97500.66;6221582;28;20220;-47
2023/06/13 12:33:34;;;;;;;2.03;1.83;;;;;;;19.22;30.87;97498.16;6221915;28;20204;-46
2023/06/13 12:36:40;;;;;;;2.30;2.03;;;;;;;19.42;32.47;97500.44;6231522;28;20243;-47
2023/06/13 12:40:06;;;;;;;4.53;2.07;;;;;;;19.45;30.98;97507.13;6220028;28;20745;-46
2023/06/13 12:43:09;;;;;;;2.10;1.90;;;;;;;19.45;30.68;97477.41;6236938;28;20236;-46
2023/06/13 12:46:12;;;;;;;4.53;2.00;;;;;;;19.54;29.09;97497.19;6233902;28;20284;-46
2023/06/13 12:49:15;;;;;;;4.83;2.00;;;;;;;19.61;31.73;97491.41;6239856;28;20230;-48
2023/06/13 12:52:17;;;;;;;4.33;2.80;;;;;;;19.64;31.34;97491.59;6238166;28;20312;-48
2023/06/13 12:55:24;;;;;;;2.23;1.70;;;;;;;19.57;33.13;97477.69;6238881;28;20238;-49
2023/06/13 12:58:36;;;;;;;3.50;2.20;;;;;;;19.50;34.31;97478.09;6243339;28;20235;-48
2023/06/13 13:01:39;;;;;;;2.60;2.00;;;;;;;19.52;35.78;97472.38;6201390;28;20228;-48
2023/06/13 13:04:43;;;;;;;3.07;2.00;;;;;;;19.41;37.08;97477.22;6237898;28;20246;-46
2023/06/13 13:07:59;;;;;;;2.87;1.87;;;;;;;19.07;35.44;97446.06;6160080;28;20764;-47
2023/06/13 13:11:18;;;;;;;3.40;2.17;;;;;;;19.04;36.39;97457.47;6164022;28;20228;-46
2023/06/13 13:14:22;;;;;;;2.10;1.90;;;;;;;19.30;35.35;97471.22;6164493;28;20712;-45
2023/06/13 13:17:25;;;;;;;3.40;2.07;;;;;;;19.36;35.91;97469.25;6166978;28;20240;-46
2023/06/13 13:20:27;;;;;;;7.10;2.53;;;;;;;19.37;35.12;97473.53;6165753;28;20730;-48
2023/06/13 13:23:32;;;;;;;3.17;2.30;;;;;;;19.29;34.82;97464.22;6164176;28;20236;-45
2023/06/13 13:26:35;;;;;;;4.20;1.80;;;;;;;19.36;37.14;97471.13;6167194;28;20237;-45
2023/06/13 13:29:38;;;;;;;6.73;2.30;;;;;;;19.04;32.94;97414.28;6166700;28;20236;-47
2023/06/13 13:32:40;;;;;;;3.97;2.30;;;;;;;19.19;33.38;97434.75;6170770;28;20713;-46
2023/06/13 13:35:42;;;;;;;3.00;2.60;;;;;;;19.56;34.49;97454.47;6171118;28;20244;-47
2023/06/13 13:38:47;;;;;;;2.27;1.90;;;;;;;19.53;36.48;97461.28;6211878;28;20731;-46
2023/06/13 13:41:49;;;;;;;2.73;2.27;;;;;;;19.45;34.18;97453.09;6243665;28;20235;-48
2023/06/13 13:44:52;;;;;;;2.57;2.17;;;;;;;19.45;34.20;97451.19;6242148;28;20228;-46
2023/06/13 13:47:55;;;;;;;2.90;2.37;;;;;;;19.20;30.97;97409.31;6240392;28;20606;-47
2023/06/13 13:50:57;;;;;;;3.80;2.37;;;;;;;19.51;32.49;97452.69;6239629;28;20320;-48
2023/06/13 13:54:00;;;;;;;2.63;2.23;;;;;;;19.36;30.65;97417.91;6237807;28;20709;-47
2023/06/13 13:57:03;;;;;;;4.63;2.07;;;;;;;19.66;32.09;97440.75;6217283;28;20722;-46
2023/06/13 14:00:06;;;;;;;5.20;2.57;;;;;;;19.75;32.33;97451.59;6243577;28;20235;-48
2023/06/13 14:03:08;;;;;;;2.50;2.07;;;;;;;19.82;30.87;97452.78;6220577;28;20603;-47
2023/06/13 14:06:12;;;;;;;4.23;2.20;;;;;;;19.55;32.13;97415.81;6239301;28;20220;-46
2023/06/13 14:09:16;;;;;;;3.43;2.33;;;;;;;19.74;31.33;97434.59;6239176;28;20208;-47
2023/06/13 14:12:18;;;;;;;4.50;2.07;;;;;;;19.75;32.89;97448.91;6243317;28;20215;-47
2023/06/13 14:15:21;;;;;;;4.57;2.07;;;;;;;19.69;33.26;97440.13;6243337;28;20381;-47
2023/06/13 14:18:23;;;;;;;3.27;1.77;;;;;;;19.66;37.85;97438.06;6242748;28;20223;-47
2023/06/13 14:21:26;;;;;;;2.83;2.03;;;;;;;19.54;34.66;97416.94;6216327;28;20622;-49
2023/06/13 14:24:28;;;;;;;3.43;2.27;;;;;;;19.50;33.12;97428.66;6223141;28;20246;-47
2023/06/13 14:27:31;;;;;;;2.73;2.00;;;;;;;19.45;35.63;97431.47;6238967;28;20241;-49
2023/06/13 14:30:33;;;;;;;3.23;1.80;;;;;;;19.33;36.11;97432.00;6236637;28;20235;-47
2023/06/13 14:33:38;;;;;;;2.63;2.27;;;;;;;19.28;36.61;97424.81;6242750;28;20226;-49